createdAt,value
2022-09-03T00:15:05.304Z,10.53
2022-09-03T00:22:07.355Z,10.43
2022-09-03T00:38:10.940Z,10.33
2022-09-03T00:41:31.612Z,10.29
2022-09-03T00:49:10.044Z,10.15
2022-09-03T01:00:58.025Z,10.04
2022-09-03T01:17:22.125Z,9.84
2022-09-03T02:23:31.147Z,9.05
2022-09-03T02:26:04.715Z,9.02
2022-09-03T02:33:48.166Z,8.96
2022-09-03T02:40:42.682Z,8.92
2022-09-03T02:52:50.183Z,8.75
2022-09-03T02:55:51.844Z,8.70
2022-09-03T02:58:31.648Z,8.66
2022-09-03T03:05:59.248Z,8.58
2022-09-03T03:09:26.472Z,8.52
2022-09-03T03:11:58.744Z,8.51
2022-09-03T03:29:05.865Z,8.40
2022-09-03T03:36:13.774Z,8.32
2022-09-03T03:44:20.759Z,8.28
2022-09-03T03:47:01.899Z,8.26
2022-09-03T03:56:24.014Z,8.15
2022-09-03T03:59:00.294Z,8.11
2022-09-03T04:01:38.989Z,8.09
2022-09-03T04:04:11.597Z,8.07
2022-09-03T04:07:35.570Z,8.07
2022-09-03T04:28:50.501Z,7.99
2022-09-03T04:31:27.353Z,8.00
2022-09-03T04:34:06.610Z,8.01
2022-09-03T04:36:39.475Z,8.01
2022-09-03T04:39:13.762Z,8.03
2022-09-03T04:41:46.098Z,8.05
2022-09-03T04:44:41.353Z,8.07
2022-09-03T04:47:15.628Z,8.09
2022-09-03T04:55:45.416Z,8.15
2022-09-03T04:58:17.689Z,8.18
2022-09-03T05:00:50.241Z,8.21
2022-09-03T05:03:23.170Z,8.24
2022-09-03T05:05:59.477Z,8.28
2022-09-03T05:08:31.661Z,8.32
2022-09-03T05:11:04.102Z,8.38
2022-09-03T05:13:37.702Z,8.46
2022-09-03T05:16:13.295Z,8.53
2022-09-03T05:18:46.079Z,8.59
2022-09-03T05:21:19.916Z,8.65
2022-09-03T05:23:53.542Z,8.73
2022-09-03T05:26:30.322Z,8.84
2022-09-03T05:29:04.427Z,8.91
2022-09-03T05:31:39.107Z,9.00
2022-09-03T05:34:16.697Z,9.10
2022-09-03T05:36:51.157Z,9.21
2022-09-03T05:39:23.465Z,9.33
2022-09-03T05:41:55.858Z,9.46
2022-09-03T05:44:28.219Z,9.61
2022-09-03T05:47:00.511Z,9.79
2022-09-03T05:49:32.862Z,9.99
2022-09-03T05:52:05.342Z,10.18
2022-09-03T05:54:37.374Z,10.33
2022-09-03T05:57:09.619Z,10.49
2022-09-03T05:59:42.953Z,10.72
2022-09-03T06:02:15.427Z,10.95
2022-09-03T06:04:47.635Z,11.21
2022-09-03T06:07:21.103Z,11.49
2022-09-03T06:09:53.220Z,11.78
2022-09-03T06:12:25.380Z,11.94
2022-09-03T06:15:00.265Z,12.10
2022-09-03T06:17:34.877Z,12.34
2022-09-03T06:20:08.346Z,12.60
2022-09-03T06:22:40.919Z,12.84
2022-09-03T06:25:14.199Z,13.08
2022-09-03T06:27:52.340Z,13.30
2022-09-03T06:30:27.227Z,13.49
2022-09-03T06:32:59.542Z,13.69
2022-09-03T06:35:31.913Z,13.89
2022-09-03T06:38:13.981Z,14.12
2022-09-03T06:40:52.724Z,14.31
2022-09-03T06:43:26.560Z,14.51
2022-09-03T06:46:00.552Z,14.70
2022-09-03T06:48:34.440Z,14.86
2022-09-03T06:51:09.111Z,15.03
2022-09-03T06:53:44.253Z,15.20
2022-09-03T06:56:18.414Z,15.36
2022-09-03T06:58:50.763Z,15.55
2022-09-03T07:01:25.978Z,15.70
2022-09-03T07:04:01.387Z,15.86
2022-09-03T07:06:39.709Z,16.05
2022-09-03T07:09:13.363Z,16.25
2022-09-03T07:11:48.743Z,16.41
2022-09-03T07:14:24.829Z,16.55
2022-09-03T07:17:30.541Z,16.74
2022-09-03T07:24:05.396Z,17.19
2022-09-03T07:26:39.435Z,17.34
2022-09-03T07:29:13.260Z,17.48
2022-09-03T07:31:45.893Z,17.63
2022-09-03T07:34:18.345Z,17.80
2022-09-03T07:36:51.907Z,17.95
2022-09-03T07:39:24.325Z,18.11
2022-09-03T07:41:58.341Z,18.21
2022-09-03T07:44:31.214Z,18.37
2022-09-03T07:47:07.042Z,18.59
2022-09-03T07:49:39.079Z,18.78
2022-09-03T07:52:11.908Z,18.93
2022-09-03T07:54:45.028Z,19.06
2022-09-03T07:57:17.211Z,19.15
2022-09-03T07:59:49.374Z,19.22
2022-09-03T08:02:21.714Z,19.34
2022-09-03T08:04:53.824Z,19.48
2022-09-03T08:07:25.914Z,19.59
2022-09-03T08:09:59.601Z,19.68
2022-09-03T08:12:32.334Z,19.76
2022-09-03T08:15:05.340Z,19.74
2022-09-03T08:17:37.378Z,19.48
2022-09-03T08:20:11.127Z,19.36
2022-09-03T08:22:44.604Z,19.41
2022-09-03T08:25:17.096Z,19.52
2022-09-03T08:27:49.425Z,19.63
2022-09-03T08:30:22.203Z,19.66
2022-09-03T08:38:48.298Z,19.95
2022-09-03T08:46:35.912Z,20.28
2022-09-03T08:49:09.157Z,20.41
2022-09-03T08:51:42.069Z,20.47
2022-09-03T08:55:26.349Z,20.52
2022-09-03T09:02:28.497Z,20.73
2022-09-03T09:10:12.795Z,20.92
2022-09-03T09:13:18.822Z,21.01
2022-09-03T09:16:02.423Z,21.14
2022-09-03T09:18:47.645Z,21.27
2022-09-03T09:21:27.664Z,21.34
2022-09-03T09:24:04.181Z,21.38
2022-09-03T09:26:36.594Z,21.51
2022-09-03T09:29:11.909Z,21.63
2022-09-03T09:31:45.223Z,21.75
2022-09-03T09:34:17.853Z,21.82
2022-09-03T09:36:54.290Z,21.73
2022-09-03T09:39:27.152Z,21.51
2022-09-03T09:42:09.615Z,21.33
2022-09-03T09:44:43.803Z,21.35
2022-09-03T09:47:26.683Z,21.48
2022-09-03T09:50:00.955Z,21.50
2022-09-03T09:52:33.726Z,21.42
2022-09-03T09:55:19.283Z,21.37
2022-09-03T09:57:54.460Z,21.30
2022-09-03T10:00:27.173Z,21.33
2022-09-03T10:02:59.415Z,21.35
2022-09-03T10:05:43.404Z,21.29
2022-09-03T10:08:38.099Z,21.11
2022-09-03T10:11:10.418Z,20.98
2022-09-03T10:22:21.429Z,21.02
2022-09-03T10:25:04.783Z,20.89
2022-09-03T10:27:37.350Z,20.67
2022-09-03T10:30:20.123Z,20.52
2022-09-03T10:33:06.782Z,20.42
2022-09-03T10:35:47.462Z,20.32
2022-09-03T10:38:27.738Z,20.30
2022-09-03T10:41:16.221Z,20.27
2022-09-03T10:56:36.601Z,19.70
2022-09-03T10:59:29.261Z,19.70
2022-09-03T11:02:42.348Z,19.70
2022-09-03T11:05:22.983Z,19.68
2022-09-03T11:08:00.314Z,19.66
2022-09-03T11:10:34.565Z,19.60
2022-09-03T11:21:44.757Z,19.34
2022-09-03T11:33:16.160Z,19.50
2022-09-03T11:45:51.826Z,19.44
2022-09-03T12:24:45.092Z,19.41
2022-09-03T12:27:26.355Z,19.46
2022-09-03T12:40:04.584Z,19.49
2022-09-03T12:47:37.915Z,19.26
2022-09-03T13:00:02.693Z,19.00
2022-09-03T13:06:36.333Z,19.06
2022-09-03T13:18:24.946Z,19.32
2022-09-03T13:21:23.438Z,19.41
2022-09-03T13:28:27.819Z,19.90
2022-09-03T14:20:01.400Z,20.01
2022-09-03T14:27:07.677Z,19.76
2022-09-03T14:39:32.941Z,19.62
2022-09-03T14:43:57.428Z,19.71
2022-09-03T14:59:57.380Z,19.91
2022-09-03T15:03:03.987Z,19.94
2022-09-03T15:06:03.860Z,19.84
2022-09-03T15:08:56.547Z,19.72
2022-09-03T15:11:33.344Z,19.66
2022-09-03T15:14:11.845Z,19.62
2022-09-03T15:16:59.948Z,19.54
2022-09-03T15:19:58.796Z,19.51
2022-09-03T15:22:57.991Z,19.44
2022-09-03T15:25:42.840Z,19.37
2022-09-03T15:28:24.394Z,19.31
2022-09-03T15:31:02.985Z,19.23
2022-09-03T15:33:41.276Z,19.14
2022-09-03T15:36:21.509Z,19.08
2022-09-03T15:39:00.684Z,19.04
2022-09-03T15:41:41.583Z,19.04
2022-09-03T15:44:19.638Z,19.03
2022-09-03T15:46:57.971Z,19.06
2022-09-03T15:49:53.176Z,19.04
2022-09-03T15:52:33.691Z,19.04
2022-09-03T15:55:12.973Z,18.99
2022-09-03T15:57:54.633Z,18.98
2022-09-03T16:00:30.340Z,18.95
2022-09-03T16:03:21.706Z,18.93
2022-09-03T16:09:07.519Z,18.85
2022-09-03T16:16:12.896Z,18.72
2022-09-03T16:18:56.751Z,18.68
2022-09-03T16:21:36.953Z,18.61
2022-09-03T16:24:19.368Z,18.53
2022-09-03T16:26:57.450Z,18.51
2022-09-03T16:29:32.248Z,18.48
2022-09-03T16:32:19.559Z,18.48
2022-09-03T16:35:04.640Z,18.45
2022-09-03T16:37:47.628Z,18.45
2022-09-03T16:40:29.197Z,18.42
2022-09-03T16:43:29.956Z,18.39
2022-09-03T16:46:12.282Z,18.38
2022-09-03T16:48:55.123Z,18.33
2022-09-03T16:51:34.892Z,18.26
2022-09-03T17:07:15.955Z,17.78
2022-09-03T17:13:46.030Z,17.59
2022-09-03T17:16:30.315Z,17.50
2022-09-03T17:19:14.532Z,17.40
2022-09-03T17:21:55.014Z,17.32
2022-09-03T17:24:48.763Z,17.21
2022-09-03T17:27:46.481Z,17.09
2022-09-03T17:30:32.302Z,16.97
2022-09-03T17:33:34.708Z,16.87
2022-09-03T17:36:15.962Z,16.77
2022-09-03T17:39:23.219Z,16.64
2022-09-03T17:41:57.776Z,16.46
2022-09-03T17:44:47.888Z,16.33
2022-09-03T17:47:43.548Z,16.20
2022-09-03T17:50:24.279Z,16.09
2022-09-03T17:53:02.076Z,16.01
2022-09-03T17:55:37.563Z,15.93
2022-09-03T17:58:15.452Z,15.85
2022-09-03T18:00:59.376Z,15.78
2022-09-03T18:03:37.429Z,15.71
2022-09-03T18:06:19.964Z,15.61
2022-09-03T18:08:58.014Z,15.53
2022-09-03T18:11:36.821Z,15.46
2022-09-03T18:14:18.226Z,15.39
2022-09-03T18:16:56.135Z,15.32
2022-09-03T18:19:55.657Z,15.25
2022-09-03T18:22:50.008Z,15.18
2022-09-03T18:25:45.364Z,15.07
2022-09-03T18:28:38.415Z,14.98
2022-09-03T18:31:35.456Z,14.91
2022-09-03T18:34:27.013Z,14.83
2022-09-03T18:37:19.875Z,14.75
2022-09-03T18:40:09.970Z,14.65
2022-09-03T18:43:12.859Z,14.54
2022-09-03T18:47:00.365Z,14.43
2022-09-03T18:49:34.716Z,14.34
2022-09-03T18:52:35.518Z,14.26
2022-09-03T18:55:34.237Z,14.18
2022-09-03T18:58:34.116Z,14.10
2022-09-03T19:01:30.324Z,14.05
2022-09-03T19:04:32.577Z,14.00
2022-09-03T19:07:28.105Z,13.91
2022-09-03T19:10:27.899Z,13.84
2022-09-03T19:13:36.014Z,13.79
2022-09-03T19:16:29.632Z,13.74
2022-09-03T19:19:29.811Z,13.66
2022-09-03T19:22:28.208Z,13.61
2022-09-03T19:25:22.776Z,13.57
2022-09-03T19:28:25.981Z,13.52
2022-09-03T19:31:30.688Z,13.48
2022-09-03T19:34:28.286Z,13.44
2022-09-03T19:37:26.028Z,13.39
2022-09-03T19:40:30.172Z,13.33
2022-09-03T19:43:36.796Z,13.26
2022-09-03T19:46:38.056Z,13.20
2022-09-03T19:49:39.079Z,13.15
2022-09-03T19:52:37.533Z,13.08
2022-09-03T19:55:31.426Z,13.01
2022-09-03T19:58:42.025Z,12.93
2022-09-03T20:01:31.821Z,12.87
2022-09-03T20:04:30.727Z,12.82
2022-09-03T20:07:23.316Z,12.77
2022-09-03T20:10:15.384Z,12.73
2022-09-03T20:12:51.646Z,12.69
2022-09-03T20:15:31.191Z,12.66
2022-09-03T20:18:12.512Z,12.65
2022-09-03T20:20:53.690Z,12.62
2022-09-03T20:23:35.817Z,12.58
2022-09-03T20:26:33.291Z,12.52
2022-09-03T20:29:39.035Z,12.48
2022-09-03T20:32:19.525Z,12.45
2022-09-03T20:35:00.470Z,12.41
2022-09-03T20:37:42.066Z,12.38
2022-09-03T20:40:29.039Z,12.36
2022-09-03T20:43:18.395Z,12.31
2022-09-03T20:46:07.361Z,12.28
2022-09-03T20:48:51.261Z,12.25
2022-09-03T20:51:28.872Z,12.20
2022-09-03T20:54:20.655Z,12.17
2022-09-03T20:57:06.890Z,12.13
2022-09-03T20:59:57.518Z,12.11
2022-09-03T21:02:39.509Z,12.08
2022-09-03T21:05:19.170Z,12.03
2022-09-03T21:08:04.747Z,12.01
2022-09-03T21:10:44.324Z,12.00
2022-09-03T21:13:26.050Z,12.00
2022-09-03T21:16:03.579Z,11.98
2022-09-03T21:18:41.725Z,11.95
2022-09-03T21:21:24.768Z,11.92
2022-09-03T21:24:06.183Z,11.90
2022-09-03T21:26:46.122Z,11.89
2022-09-03T21:29:26.721Z,11.85
2022-09-03T21:32:05.160Z,11.82
2022-09-03T21:34:43.014Z,11.79
2022-09-03T21:37:17.825Z,11.76
2022-09-03T21:39:56.300Z,11.72
2022-09-03T21:42:36.590Z,11.70
2022-09-03T21:45:15.789Z,11.66
2022-09-03T21:47:58.290Z,11.62
2022-09-03T21:50:37.159Z,11.60
2022-09-03T21:53:16.405Z,11.57
2022-09-03T21:56:04.452Z,11.52
2022-09-03T21:58:53.603Z,11.48
2022-09-03T22:01:34.359Z,11.48
2022-09-03T22:04:09.598Z,11.46
2022-09-03T22:06:51.502Z,11.44
2022-09-03T22:09:32.892Z,11.42
2022-09-03T22:12:13.542Z,11.41
2022-09-03T22:14:49.883Z,11.39
2022-09-03T22:17:28.929Z,11.34
2022-09-03T22:20:01.054Z,11.30
2022-09-03T22:22:40.834Z,11.25
2022-09-03T22:25:17.218Z,11.20
2022-09-03T22:28:00.887Z,11.16
2022-09-03T22:30:39.988Z,11.13
2022-09-03T22:33:20.259Z,11.13
2022-09-03T22:36:08.577Z,11.11
2022-09-03T22:38:56.903Z,11.07
2022-09-03T22:41:55.253Z,11.01
2022-09-03T22:44:43.206Z,10.96
2022-09-03T22:47:28.347Z,10.89
2022-09-03T22:50:10.962Z,10.85
2022-09-03T22:52:46.624Z,10.81
2022-09-03T22:55:21.362Z,10.78
2022-09-03T22:58:03.971Z,10.73
2022-09-03T23:00:42.402Z,10.71
2022-09-03T23:03:20.695Z,10.66
2022-09-03T23:05:57.747Z,10.60
2022-09-03T23:08:34.670Z,10.56
2022-09-03T23:11:11.281Z,10.52
2022-09-03T23:13:48.690Z,10.47
2022-09-03T23:16:30.364Z,10.44
2022-09-03T23:21:55.638Z,10.39
2022-09-03T23:24:34.101Z,10.35
2022-09-03T23:27:12.605Z,10.32
2022-09-03T23:29:49.514Z,10.28
2022-09-03T23:32:22.411Z,10.27
2022-09-03T23:34:56.180Z,10.24
2022-09-03T23:37:47.157Z,10.22
2022-09-03T23:40:45.396Z,10.22
2022-09-03T23:43:50.844Z,10.21
2022-09-03T23:46:28.283Z,10.21
2022-09-03T23:49:31.492Z,10.22
2022-09-03T23:52:31.177Z,10.23
2022-09-03T23:55:09.405Z,10.23
2022-09-03T23:57:51.070Z,10.23
